Aviation Digital Data Service (ADDS)

Output produced by METARs form (2107 UTC 08 February 2016)
found at http://aviationweather.gov/adds/metars/
 
KARA 082053Z 31023G32KT 10SM CLR 15/M10 A3008 RMK AO2 PK WND 30036/2036 SLP185 60000 T01501100 56028